Ankie — PHKA — position and weather

sailwx.info

Track history (hours):
 
Tides and Currents Weather Stations Pressure Air Temp Water Temp Dewpoint Dewpoint Depression Visibility Wind Speed Wind Dir Waves Ship Positions

Ankie

Last reported at 2018-Jan-18 16:58 UTC. Time now 2018-Jan-18 17:18 UTC.
Position N 53°20' W 002°45'.

Length 89 m; draft 5.4 m.

Type: Cargo ship. MMSI: 244554000.

Date/timePositionNaut miles runAvg speedWind from/ knotsBaromVisibWave heightAir tempDewpointWater temp
2018-Jan-18 16:58N 53°20' W 002°45'0 0.0
2018-Jan-18 16:28N 53°20' W 002°45'0 0.0
2018-Jan-18 15:55N 53°20' W 002°45'0 0.0
2018-Jan-18 15:28N 53°20' W 002°45'0 0.0
2018-Jan-18 14:55N 53°20' W 002°45'0 0.0
2018-Jan-18 14:28N 53°20' W 002°45'0 0.0
2018-Jan-18 13:55N 53°20' W 002°45'0 0.0
2018-Jan-18 13:28N 53°20' W 002°45'0 0.0
2018-Jan-18 12:58N 53°20' W 002°45'0 0.0
2018-Jan-18 12:28N 53°20' W 002°45'0 0.0
2018-Jan-18 11:58N 53°20' W 002°45'0 0.0
2018-Jan-18 11:28N 53°20' W 002°45'0 0.0
2018-Jan-18 10:58N 53°20' W 002°45'0 0.0
2018-Jan-18 10:28N 53°20' W 002°45'0 0.0
2018-Jan-18 09:58N 53°20' W 002°45'0 0.0
2018-Jan-18 09:28N 53°20' W 002°45'0 0.0
2018-Jan-18 08:58N 53°20' W 002°45'0 0.0
2018-Jan-18 08:28N 53°20' W 002°45'0 0.0
2018-Jan-18 07:58N 53°20' W 002°45'0 0.0
2018-Jan-18 07:28N 53°20' W 002°45'0 0.0
2018-Jan-18 06:58N 53°20' W 002°45'0 0.0
2018-Jan-18 06:28N 53°20' W 002°45'0 0.0
2018-Jan-18 05:58N 53°20' W 002°45'0 0.0
2018-Jan-18 05:28N 53°20' W 002°45'0 0.0
2018-Jan-18 04:58N 53°20' W 002°45'0 0.0
2018-Jan-18 04:28N 53°20' W 002°45'0 0.0
2018-Jan-18 03:58N 53°20' W 002°45'0 0.0
2018-Jan-18 03:28N 53°20' W 002°45'0 0.0
2018-Jan-18 02:58N 53°20' W 002°45'0 0.0
2018-Jan-18 02:28N 53°20' W 002°45'0 0.0
2018-Jan-18 01:58N 53°20' W 002°45'0 0.0
2018-Jan-18 01:28N 53°20' W 002°45'0 0.0
2018-Jan-18 00:58N 53°20' W 002°45'0 0.0
2018-Jan-17 23:58N 53°20' W 002°45'0 0.0
2018-Jan-17 23:52N 53°20' W 002°45'  
2018-Jan-10 20:30N 43°39' W 006°09'2 4.9
2018-Jan-10 20:00N 43°39' W 006°06'3 4.9
2018-Jan-10 19:27N 43°39' W 006°02'3 5.4
2018-Jan-10 18:57N 43°37' W 005°59'2 0.0
2018-Jan-09 07:40N 43°36' W 005°58'2 8.6
2018-Jan-09 07:24N 43°38' W 005°59'4 9.8
2018-Jan-09 06:58N 43°42' W 005°59'5 9.4
2018-Jan-09 06:29N 43°47' W 005°59'  
Track history (hours):
 
Tides and Currents Weather Stations Pressure Air Temp Water Temp Dewpoint Dewpoint Depression Visibility Wind Speed Wind Dir Waves Ship Positions

Ankie

Last reported at 2018-Jan-18 16:58 UTC. Time now 2018-Jan-18 17:18 UTC.
Position N 53°20' W 002°45'.

Length 89 m; draft 5.4 m.

Type: Cargo ship. MMSI: 244554000.

Date/timePositionNaut miles runAvg speedWind from/ knotsBaromVisibWave heightAir tempDewpointWater temp
2018-Jan-18 16:58N 53°20' W 002°45'0 0.0
2018-Jan-18 16:28N 53°20' W 002°45'0 0.0
2018-Jan-18 15:55N 53°20' W 002°45'0 0.0
2018-Jan-18 15:28N 53°20' W 002°45'0 0.0
2018-Jan-18 14:55N 53°20' W 002°45'0 0.0
2018-Jan-18 14:28N 53°20' W 002°45'0 0.0
2018-Jan-18 13:55N 53°20' W 002°45'0 0.0
2018-Jan-18 13:28N 53°20' W 002°45'0 0.0
2018-Jan-18 12:58N 53°20' W 002°45'0 0.0
2018-Jan-18 12:28N 53°20' W 002°45'0 0.0
2018-Jan-18 11:58N 53°20' W 002°45'0 0.0
2018-Jan-18 11:28N 53°20' W 002°45'0 0.0
2018-Jan-18 10:58N 53°20' W 002°45'0 0.0
2018-Jan-18 10:28N 53°20' W 002°45'0 0.0
2018-Jan-18 09:58N 53°20' W 002°45'0 0.0
2018-Jan-18 09:28N 53°20' W 002°45'0 0.0
2018-Jan-18 08:58N 53°20' W 002°45'0 0.0
2018-Jan-18 08:28N 53°20' W 002°45'0 0.0
2018-Jan-18 07:58N 53°20' W 002°45'0 0.0
2018-Jan-18 07:28N 53°20' W 002°45'0 0.0
2018-Jan-18 06:58N 53°20' W 002°45'0 0.0
2018-Jan-18 06:28N 53°20' W 002°45'0 0.0
2018-Jan-18 05:58N 53°20' W 002°45'0 0.0
2018-Jan-18 05:28N 53°20' W 002°45'0 0.0
2018-Jan-18 04:58N 53°20' W 002°45'0 0.0
2018-Jan-18 04:28N 53°20' W 002°45'0 0.0
2018-Jan-18 03:58N 53°20' W 002°45'0 0.0
2018-Jan-18 03:28N 53°20' W 002°45'0 0.0
2018-Jan-18 02:58N 53°20' W 002°45'0 0.0
2018-Jan-18 02:28N 53°20' W 002°45'0 0.0
2018-Jan-18 01:58N 53°20' W 002°45'0 0.0
2018-Jan-18 01:28N 53°20' W 002°45'0 0.0
2018-Jan-18 00:58N 53°20' W 002°45'0 0.0
2018-Jan-17 23:58N 53°20' W 002°45'0 0.0
2018-Jan-17 23:52N 53°20' W 002°45'  
2018-Jan-10 20:30N 43°39' W 006°09'2 4.9
2018-Jan-10 20:00N 43°39' W 006°06'3 4.9
2018-Jan-10 19:27N 43°39' W 006°02'3 5.4
2018-Jan-10 18:57N 43°37' W 005°59'2 0.0
2018-Jan-09 07:40N 43°36' W 005°58'2 8.6
2018-Jan-09 07:24N 43°38' W 005°59'4 9.8
2018-Jan-09 06:58N 43°42' W 005°59'5 9.4
2018-Jan-09 06:29N 43°47' W 005°59'  

Dump ship's entire track history